createdAt,value
2023-01-23T00:31:17.043Z,15.90
2023-01-23T01:11:12.253Z,16.30
2023-01-23T01:42:18.196Z,17.80
2023-01-23T02:12:38.953Z,17.23
2023-01-23T03:13:12.231Z,19.13
2023-01-23T04:18:44.879Z,18.30
2023-01-23T04:39:03.249Z,19.37
2023-01-23T04:59:51.322Z,16.57
2023-01-23T05:29:08.023Z,22.83
2023-01-23T06:24:19.508Z,21.37
2023-01-23T06:49:55.334Z,20.97
2023-01-23T07:20:16.603Z,9.10
2023-01-23T07:55:47.408Z,17.77
2023-01-23T08:26:18.342Z,20.63
2023-01-23T08:46:17.448Z,20.87
2023-01-23T09:16:55.557Z,18.07
2023-01-23T09:37:25.860Z,14.50
2023-01-23T09:41:37.010Z,15.70
2023-01-23T10:52:41.515Z,19.30
2023-01-23T11:13:29.832Z,25.73
2023-01-23T11:38:30.916Z,25.20
2023-01-23T12:34:21.698Z,22.17
2023-01-23T13:25:07.054Z,23.50
2023-01-23T14:20:33.165Z,20.63
2023-01-23T14:41:11.471Z,21.67
2023-01-23T15:16:35.411Z,22.50
2023-01-23T15:31:25.423Z,19.37
2023-01-23T15:57:14.751Z,15.30
2023-01-23T16:17:35.765Z,24.87
2023-01-23T16:42:39.008Z,25.27
2023-01-23T17:02:54.503Z,20.70
2023-01-23T17:28:40.313Z,22.60
2023-01-23T17:48:50.302Z,26.63
2023-01-23T18:03:34.935Z,27.27
2023-01-23T18:33:42.368Z,28.23
2023-01-23T22:10:15.950Z,30.40
2023-01-23T22:46:10.027Z,31.63
2023-01-23T23:11:30.800Z,34.00
2023-01-23T23:32:02.095Z,32.03
2023-01-23T23:36:24.385Z,33.53
